Pagrindinis puslapis
METAR-TAF:

METAR-TAF

Oro uostai :

Posadasas, Argentina

platuma: 27-22S, ilguma: 055-58W, Aukštis: 131 m

Dabartinis oras

Ataskaita buvo paskelbta 53 minutes, ne 16:00 UTC
Vėjas 7 kt iš Rytų
Temperatūra 28°C
Drėgmė 79%
Slėgis 1017 hPa
Matomumas 10 km arba daugiau
Išsisklaidę debesys ne aukštis 2500 ft
Su prošvaistėmis ne aukštis 10000 ft

METAR: SARP 221600Z 09007KT 9999 SCT025 BKN100 28/24 Q1017

Laikas: 13:53 (16:53 UTC)

Prognozė

Ataskaita buvo paskelbta 5 valandos ir 53 minutes, ne 11:00 UTC
Prognozė galioja nuo 22 metu 12 UTC su 23 metu 12 UTC
Vėjas 5 kt iš Rytų
Matomumas: 6000 m
Išsisklaidę debesys ne aukštis 1000 ft
Apsiniaukę ne aukštis 3500 ft
dulksna, lietus
Tikimybė 40%
nuo 22 metu 22 UTC su 23 metu 03 UTC
Matomumas: 5000 m
Su prošvaistėmis ne aukštis 1500 ft
Apsiniaukę ne aukštis 4000 ft
Mažai debesys ne aukštis 5000 ft, Liūtiniai kamuoliniai debesys.
perkūnija, lietus

TAF: SARP 221100Z 2212/2312 09005KT 6000 -DZRA SCT010 OVC035 TX33/2218Z TN21/2309Z PROB40 2222/2303 5000 TSRA BKN015 OVC040 FEW050CB

Orai ataskaitas ir orų prognozės (METAR, TAF).

turimą stotys yra geltonos ir raudonos taškus žemėlapyje.

Perkelti pele per norėdami pamatyti stoties vardą.

Tada spustelėkite, norėdami matyti oro stebėjimo ir prognozės.

Norėdami pakeisti žemėlapį: spustelėkite ant žalios mygtukų su juodo kryžiaus žemyn,; žalią mygtuką su brūkšneliu, jei norite nutolinti; arba žalių rodyklių gretimoms žemėlapius.


METAR-TAF: